Misawa Air Base Misawa JP
ICAO: RJSM
IATA:
Category: Medium
Scheduled Services:

Elevation: 119 ft
TransAlt. 14000 ft.

Airport Communications:
APP:120.7
ATIS:128.4
CLNC DEL:118.65
DEP:125.3
GND:118.65
DRAUGHON RANGE CON:36.54
METRO:34.46
COMD POST:141.6
PTD:131.45
TCA:124.05
TWR:125.3

RJSM Zoom In..

If you have problems with the map follow the link
https://www.worldairports.se/pages/airport.php?
ICAO=RJSM

Runways:

(A) RW 10 length 10007 ft width 148 ft
ILS 109.70 / hdg 104

(B) RW 28 length 10007 ft width 148 ft
ILS 109.70 / hdg 284

Location; RJSM
Day. 22 / Time. 12.00 Zulu
* QNH: 1014
* Temperature: 04° c. 39.2°f.
* Wind from: 220° Speed 06 kn.
Dewpoint: -07° c.
Visibility: 10 km or more.
Clouds: Few 3000 ft.

RJSM 221200Z 22006KT 9999 FEW030 04/M07 Q1014


Wind From 220°
Speed 06 kn.

 
 
jpsmedia.com for Web Design worldairports.se 2019   terms of use